• Join FlightAware (Why Join?)
  • Login
  • US Flag 
12:15AM EDT


 

Airport Tracker/Info


-or-


 

Live Flight TrackerFlight Track Log ✈ SWA16 ✈ 01-May-2013 ✈ KECP - KHOU

Flight Track Log - Related Links

Times and Time Zones

All times are in EDT time to prevent confusion due to time zone crossing. See the SWA16 flight status page for this flight to view local times or setup timezone preferences in your user account.

Time Position Orientation Groundspeed Altitude Reporting Facility
EDT Latitude Longitude Course Direction KTS MPH feet Rate Location/Type
08:43AM 30.4513 -86.4603 278° West  Level FlightAware Approximate
08:43AM 30.1886 -86.0983 281° West 367 422 18,900  Level Jacksonville Center
08:44AM 30.4656 -86.5740 278° West  Level FlightAware Approximate
08:44AM 30.2131 -86.2072 285° West 404 465 22,200  Level Jacksonville Center
08:45AM 30.4799 -86.6877 278° West  Level FlightAware Approximate
08:45AM 30.2431 -86.3308 286° West 416 479 23,000  Level Jacksonville Center
08:46AM 30.4940 -86.8014 278° West  Level FlightAware Approximate
08:46AM 30.2731 -86.4544 286° West 406 467 23,800  Level Jacksonville Center
08:47AM 30.5177 -86.9069 280° West  Level FlightAware Approximate
08:47AM 30.3050 -86.5808 286° West 401 461 26,100  Level Jacksonville Center
08:48AM 30.5343 -87.0224 281° West  Level FlightAware Approximate
08:48AM 30.3386 -86.7169 286° West 419 482 28,400  Level Jacksonville Center
08:49AM 30.3700 -86.8528 285° West 430 495 30,700 2,460 Climbing Jacksonville Center
08:50AM 30.4089 -87.0039 287° West 442 509 33,400 2,520 Climbing Jacksonville Center
08:51AM 30.4400 -87.1400 285° West 442 509 35,800 2,100 Climbing Jacksonville Center
08:52AM 30.4906 -87.3536 285° West 421 484 39,200 1,500 Climbing Houston Center
08:54AM 30.5217 -87.4817 286° West 414 476 40,000 360 Climbing Houston Center
08:55AM 30.5508 -87.6058 285° West 402 463 40,000  Level Houston Center
08:56AM 30.5792 -87.7311 285° West 401 461 40,000  Level Houston Center
08:57AM 30.6153 -87.8833 285° West 406 467 40,000  Level Houston Center
08:58AM 30.6358 -88.0089 281° West 398 458 40,000  Level Houston Center
08:59AM 30.6047 -88.1256 253° West 377 434 40,000  Level Houston Center
09:00AM 30.5706 -88.2433 251° West 381 438 40,000  Level Houston Center
09:01AM 30.5386 -88.3606 252° West 380 437 40,000  Level Houston Center
09:02AM 30.5025 -88.4781 250° West 383 441 40,000  Level Houston Center
09:03AM 30.4661 -88.5961 250° West 388 447 40,000  Level Houston Center
09:04AM 30.4306 -88.7156 251° West 390 449 40,000  Level Houston Center
09:05AM 30.3942 -88.8358 251° West 394 453 40,000  Level Houston Center
09:06AM 30.3572 -88.9636 252° West 396 456 40,000  Level Houston Center
09:07AM 30.3197 -89.0847 250° West 399 459 40,000  Level Houston Center
09:08AM 30.2839 -89.2075 251° West 402 463 40,000  Level Houston Center
09:09AM 30.2383 -89.3569 251° West 410 472 40,000  Level Houston Center
09:10AM 30.2000 -89.4814 250° West 410 472 40,000  Level Houston Center
09:11AM 30.1611 -89.6064 250° West 410 472 40,000  Level Houston Center
09:12AM 30.1214 -89.7331 250° West 413 475 40,000  Level Houston Center
09:13AM 30.0833 -89.8589 251° West 412 474 40,000  Level Houston Center
09:14AM 30.0450 -89.9839 251° West 411 473 40,000  Level Houston Center
09:15AM 30.0056 -90.1078 250° West 410 472 40,000  Level Houston Center
09:16AM 29.9675 -90.2319 251° West 410 472 40,000  Level Houston Center
09:17AM 29.9283 -90.3547 250° West 408 470 40,000  Level Houston Center
09:18AM 29.8906 -90.4783 251° West 410 472 40,000  Level Houston Center
09:19AM 29.8528 -90.6283 254° West 412 474 40,000  Level Houston Center
09:20AM 29.8339 -90.7553 260° West 406 467 40,000  Level Houston Center
09:21AM 29.8178 -90.8828 262° West 403 464 40,000  Level Houston Center
09:22AM 29.7997 -91.0114 261° West 407 468 40,000  Level Houston Center
09:23AM 29.7808 -91.1389 260° West 406 467 40,000  Level Houston Center
09:24AM 29.7631 -91.2678 261° West 408 470 40,000  Level Houston Center
09:25AM 29.7453 -91.3961 261° West 409 471 40,000  Level Houston Center
09:26AM 29.7233 -91.5511 261° West 410 472 40,000  Level Houston Center
09:27AM 29.7047 -91.6794 261° West 409 471 40,000  Level Houston Center
09:28AM 29.6861 -91.8031 260° West 408 470 40,000  Level Houston Center
09:29AM 29.6669 -91.9328 260° West 411 473 40,000  Level Houston Center
09:30AM 29.6492 -92.0617 261° West 409 471 40,000  Level Houston Center
09:32AM 29.6297 -92.1897 260° West 408 470 40,000  Level Houston Center
09:33AM 29.6058 -92.3439 260° West 409 471 40,000  Level Houston Center
09:34AM 29.5869 -92.4719 260° West 407 468 40,000  Level Houston Center
09:35AM 29.5683 -92.6025 261° West 412 474 40,000 -240 Level Houston Center
09:36AM 29.5483 -92.7317 260° West 412 474 39,600 -660 Descending Houston Center
09:37AM 29.5286 -92.8594 260° West 408 470 38,700 -960 Descending Houston Center
09:38AM 29.5089 -92.9869 260° West 407 468 37,700 -960 Descending Houston Center
09:39AM 29.4878 -93.1186 260° West 413 475 36,800 -1,860 Descending Houston Center
09:40AM 29.4644 -93.2733 260° West 412 474 33,900 -2,520 Descending Houston Center
09:41AM 29.4444 -93.3992 260° West 405 466 31,700 -2,160 Descending Houston Center
09:42AM 29.4253 -93.5211 260° West 391 450 29,500 -2,100 Descending Houston Center
09:43AM 29.4061 -93.6386 259° West 378 435 27,400 -2,040 Descending Houston Center
09:44AM 29.3892 -93.7506 260° West 363 418 25,300 -1,980 Descending Houston Center
09:45AM 29.3717 -93.8575 259° West 347 399 23,400 -1,980 Descending Houston Center
09:46AM 29.3519 -93.9794 260° West 334 384 21,300 -1,920 Descending Houston Center
09:47AM 29.3353 -94.0778 259° West 320 368 19,500 -1,860 Descending Houston Center
09:48AM 29.3186 -94.1767 259° West 317 365 17,600 -1,860 Descending Houston Center
09:49AM 29.3028 -94.2750 260° West 316 364 15,700 -1,980 Descending Houston Center
09:50AM 29.2906 -94.3456 259° West 313 360 14,300 -1,800 Descending Houston Center
09:50AM 29.2869 -94.3708 261° West 309 356 13,900 -1,800 Descending Houston Center
09:51AM 29.2761 -94.4339 259° West 302 348 12,700 -1,800 Descending Houston Center
09:51AM 29.2719 -94.4639 261° West 301 346 12,100 -720 Descending Houston Center
09:52AM 29.2878 -94.5306 285° West 276 318 11,900 -420 Descending Houston Center
09:52AM 29.2967 -94.5453 305° West 279 321 11,700 -1,020 Descending Houston Center
09:53AM 29.3244 -94.6025 299° West 277 319 11,000 -1,200 Descending Houston Center
09:53AM 29.3417 -94.6367 300° West 274 315 10,500 -1,020 Descending Houston Center
09:54AM 29.3639 -94.6839 298° West 271 312 9,900 -540 Descending Houston Center
09:54AM 29.3789 -94.7114 302° West 271 312 10,000 60 Climbing Houston Center
09:55AM 29.4031 -94.7631 298° West 267 307 10,000  Level Houston Center
09:55AM 29.4153 -94.7858 302° West 268 308 10,000  Level Houston Center
09:56AM 29.4422 -94.8444 298° West 267 307 10,000  Level Houston Center
09:56AM 29.4519 -94.8589 308° West 266 306 10,000  Level Houston Center
09:57AM 29.4786 -94.9167 298° West 266 306 10,000 -300 Level Houston Center
09:57AM 29.4878 -94.9322 304° West 263 303 9,700 -1,200 Descending Houston Center
09:58AM 29.5122 -94.9822 299° West 255 293 8,900 -1,500 Descending Houston Center
09:58AM 29.5289 -95.0164 299° West 254 292 8,200 -1,380 Descending Houston Center
09:59AM 29.5489 -95.0594 298° West 247 284 7,400 -1,260 Descending Houston Center
09:59AM 29.5625 -95.0856 301° West 249 287 6,900 -1,380 Descending Houston Center
10:00AM 29.5850 -95.1317 299° West 250 288 6,000 -900 Descending Houston Center
10:00AM 29.5906 -95.1578 284° West 246 283 6,000  Level Houston Center
10:01AM 29.5825 -95.1944 256° West 224 258 6,000 -240 Level Houston Center
10:01AM 29.5656 -95.2281 240° Southwest 233 268 5,800 -1,200 Descending Houston Center
10:02AM 29.5464 -95.2567 232° Southwest 234 269 4,800 -1,860 Descending Houston Center
10:03AM 29.5208 -95.2833 222° Southwest 238 274 3,900 -1,560 Descending Houston Center
10:03AM 29.5036 -95.3169 240° Southwest 256 295 3,200 -1,020 Descending Houston Center
10:04AM 29.5158 -95.3522 292° West 238 274 2,900 -780 Descending Houston Center
10:04AM 29.5450 -95.3553 355° North 183 211 2,400 -1,020 Descending Houston Center
10:05AM 29.5647 -95.3503 12° North 193 222 1,900 -1,020 Descending Houston Center
10:05AM 29.5856 -95.3408 22° Northeast 149 171 1,500 -900 Descending Houston Center
10:06AM 29.6014 -95.3278 36° Northeast 163 188 1,000 -840 Descending Houston Center
10:06AM 29.6183 -95.3081 45° Northeast 131 151 600 -780 Descending Houston Center
10:07AM 29.6339 -95.2911 43° Northeast 143 165 200 -720 Descending Houston Center